createdAt,value
2023-03-07T00:02:05.397Z,4.18
2023-03-07T00:05:14.949Z,4.14
2023-03-07T00:08:21.197Z,4.14
2023-03-07T00:11:27.857Z,4.12
2023-03-07T00:14:34.334Z,4.09
2023-03-07T00:17:40.829Z,4.06
2023-03-07T00:20:47.135Z,4.02
2023-03-07T00:23:53.354Z,3.96
2023-03-07T00:26:59.572Z,3.89
2023-03-07T00:30:07.208Z,3.83
2023-03-07T00:33:13.458Z,3.78
2023-03-07T00:36:21.202Z,3.69
2023-03-07T00:39:27.528Z,3.59
2023-03-07T00:42:32.122Z,3.54
2023-03-07T00:45:38.465Z,3.49
2023-03-07T00:48:44.944Z,3.47
2023-03-07T00:51:51.308Z,3.43
2023-03-07T00:54:55.884Z,3.41
2023-03-07T00:58:02.172Z,3.38
2023-03-07T01:01:07.659Z,3.38
2023-03-07T01:04:14.134Z,3.36
2023-03-07T01:07:20.321Z,3.39
2023-03-07T01:10:29.330Z,3.40
2023-03-07T01:13:37.131Z,3.36
2023-03-07T01:16:43.338Z,3.32
2023-03-07T01:19:49.597Z,3.28
2023-03-07T01:22:55.850Z,3.27
2023-03-07T01:26:00.349Z,3.21
2023-03-07T01:29:09.983Z,3.15
2023-03-07T01:32:16.336Z,3.13
2023-03-07T01:35:20.895Z,3.12
2023-03-07T01:38:28.368Z,3.13
2023-03-07T01:41:35.241Z,3.22
2023-03-07T01:45:06.333Z,3.29
2023-03-07T01:48:12.607Z,3.32
2023-03-07T01:51:17.852Z,3.32
2023-03-07T01:54:25.941Z,3.30
2023-03-07T01:57:37.058Z,3.30
2023-03-07T02:00:45.632Z,3.33
2023-03-07T02:03:55.322Z,3.36
2023-03-07T02:07:03.912Z,3.35
2023-03-07T02:10:12.107Z,3.31
2023-03-07T02:13:18.807Z,3.26
2023-03-07T02:16:25.075Z,3.23
2023-03-07T02:19:36.049Z,3.17
2023-03-07T02:22:43.167Z,3.12
2023-03-07T02:25:56.205Z,3.11
2023-03-07T02:29:03.971Z,3.11
2023-03-07T02:32:11.251Z,3.12
2023-03-07T02:35:21.046Z,3.13
2023-03-07T02:38:27.810Z,3.14
2023-03-07T02:41:36.005Z,3.16
2023-03-07T02:44:45.255Z,3.17
2023-03-07T02:47:51.484Z,3.14
2023-03-07T02:50:57.760Z,3.14
2023-03-07T02:54:02.262Z,3.15
2023-03-07T02:57:09.397Z,3.13
2023-03-07T03:00:17.435Z,3.13
2023-03-07T03:03:23.780Z,3.13
2023-03-07T03:06:28.278Z,3.15
2023-03-07T03:09:34.564Z,3.13
2023-03-07T03:12:39.164Z,3.16
2023-03-07T03:15:45.464Z,3.16
2023-03-07T03:18:49.957Z,3.20
2023-03-07T03:21:56.232Z,3.19
2023-03-07T03:25:00.747Z,3.22
2023-03-07T03:28:07.443Z,3.20
2023-03-07T03:31:15.506Z,3.21
2023-03-07T03:34:21.815Z,3.22
2023-03-07T03:37:27.251Z,3.18
2023-03-07T03:40:33.565Z,3.08
2023-03-07T03:43:38.144Z,3.05
2023-03-07T03:46:44.478Z,2.99
2023-03-07T03:49:49.044Z,2.97
2023-03-07T03:52:55.300Z,2.90
2023-03-07T03:56:04.133Z,2.85
2023-03-07T03:59:10.368Z,2.79
2023-03-07T04:02:17.106Z,2.80
2023-03-07T04:05:23.691Z,2.80
2023-03-07T04:08:29.916Z,2.79
2023-03-07T04:11:36.702Z,2.77
2023-03-07T04:14:42.971Z,2.75
2023-03-07T04:17:47.892Z,2.77
2023-03-07T04:20:54.982Z,2.76
2023-03-07T04:24:01.133Z,2.77
2023-03-07T04:27:07.774Z,2.73
2023-03-07T04:30:15.255Z,2.65
2023-03-07T04:33:21.881Z,2.62
2023-03-07T04:36:28.569Z,2.56
2023-03-07T04:39:34.805Z,2.51
2023-03-07T04:42:41.103Z,2.49
2023-03-07T04:45:45.637Z,2.48
2023-03-07T04:48:51.879Z,2.45
2023-03-07T04:51:56.510Z,2.47
2023-03-07T04:55:02.798Z,2.42
2023-03-07T04:58:11.038Z,2.43
2023-03-07T05:01:17.283Z,2.42
2023-03-07T05:04:21.818Z,2.45
2023-03-07T05:07:30.035Z,2.42
2023-03-07T05:10:37.212Z,2.46
2023-03-07T05:13:43.493Z,2.41
2023-03-07T05:16:48.478Z,2.40
2023-03-07T05:19:55.843Z,2.42
2023-03-07T05:23:02.564Z,2.50
2023-03-07T05:26:08.997Z,2.59
2023-03-07T05:29:15.289Z,2.67
2023-03-07T05:32:19.857Z,2.73
2023-03-07T05:35:26.054Z,2.78
2023-03-07T05:38:32.346Z,2.89
2023-03-07T05:41:36.847Z,2.98
2023-03-07T05:44:43.190Z,3.04
2023-03-07T05:47:47.744Z,3.14
2023-03-07T05:50:53.999Z,3.18
2023-03-07T05:54:00.692Z,3.28
2023-03-07T05:57:07.273Z,3.36
2023-03-07T06:00:16.150Z,3.42
2023-03-07T06:03:22.560Z,3.48
2023-03-07T06:06:28.857Z,3.54
2023-03-07T06:09:35.130Z,3.60
2023-03-07T06:12:39.666Z,3.68
2023-03-07T06:15:45.964Z,3.71
2023-03-07T06:18:50.510Z,3.79
2023-03-07T06:21:56.805Z,3.84
2023-03-07T06:25:01.320Z,3.94
2023-03-07T06:28:07.668Z,4.00
2023-03-07T06:31:13.036Z,4.11
2023-03-07T06:34:19.953Z,4.17
2023-03-07T06:37:26.215Z,4.27
2023-03-07T06:40:30.711Z,4.37
2023-03-07T06:43:37.211Z,4.42
2023-03-07T06:46:43.616Z,4.51
2023-03-07T06:49:48.178Z,4.59
2023-03-07T06:52:54.446Z,4.62
2023-03-07T06:55:58.965Z,4.74
2023-03-07T06:59:05.237Z,4.81
2023-03-07T07:02:15.323Z,4.94
2023-03-07T07:05:21.677Z,5.02
2023-03-07T07:08:26.180Z,5.15
2023-03-07T07:11:32.922Z,5.26
2023-03-07T07:14:39.236Z,5.38
2023-03-07T07:17:44.059Z,5.52
2023-03-07T07:20:56.962Z,5.62
2023-03-07T07:24:03.335Z,5.42
2023-03-07T07:27:08.117Z,4.86
2023-03-07T07:30:15.801Z,4.45
2023-03-07T07:33:22.318Z,4.32
2023-03-07T07:36:29.184Z,4.73
2023-03-07T07:39:35.527Z,5.13
2023-03-07T07:42:40.371Z,5.42
2023-03-07T07:45:46.815Z,5.59
2023-03-07T07:48:53.093Z,5.69
2023-03-07T07:51:59.231Z,5.29
2023-03-07T07:55:05.908Z,4.91
2023-03-07T07:58:12.188Z,4.76
2023-03-07T08:01:17.887Z,5.15
2023-03-07T08:04:24.212Z,5.55
2023-03-07T08:07:29.091Z,5.85
2023-03-07T08:10:35.702Z,5.57
2023-03-07T08:13:42.116Z,5.25
2023-03-07T08:16:47.064Z,5.04
2023-03-07T08:19:53.233Z,4.91
2023-03-07T08:22:59.475Z,4.96
2023-03-07T08:26:10.916Z,5.51
2023-03-07T08:29:17.208Z,6.09
2023-03-07T08:32:23.676Z,6.43
2023-03-07T08:35:32.229Z,6.20
2023-03-07T08:38:38.794Z,5.90
2023-03-07T08:41:45.120Z,5.72
2023-03-07T08:44:49.661Z,5.62
2023-03-07T08:47:57.483Z,5.55
2023-03-07T08:51:09.605Z,5.65
2023-03-07T08:54:16.118Z,6.25
2023-03-07T08:57:22.441Z,6.69
2023-03-07T09:00:27.566Z,6.56
2023-03-07T09:03:33.934Z,6.37
2023-03-07T09:06:38.440Z,6.27
2023-03-07T09:09:45.028Z,6.23
2023-03-07T09:12:51.984Z,6.21
2023-03-07T09:15:58.266Z,6.21
2023-03-07T09:19:02.915Z,6.23
2023-03-07T09:22:09.208Z,6.24
2023-03-07T09:25:16.175Z,6.28
2023-03-07T09:28:22.404Z,6.35
2023-03-07T09:31:28.906Z,6.41
2023-03-07T09:34:35.443Z,6.45
2023-03-07T09:37:39.961Z,6.48
2023-03-07T09:40:48.951Z,6.50
2023-03-07T09:44:05.608Z,6.53
2023-03-07T09:47:29.773Z,6.57
2023-03-07T09:50:49.273Z,6.61
2023-03-07T09:54:01.484Z,6.68
2023-03-07T09:57:17.372Z,6.74
2023-03-07T10:00:29.398Z,6.81
2023-03-07T10:03:43.261Z,6.86
2023-03-07T10:06:57.974Z,6.94
2023-03-07T10:10:07.867Z,7.03
2023-03-07T10:13:26.595Z,7.12
2023-03-07T10:16:42.736Z,7.23
2023-03-07T10:19:52.421Z,7.33
2023-03-07T10:23:07.660Z,7.40
2023-03-07T10:26:19.397Z,7.46
2023-03-07T10:29:31.207Z,7.48
2023-03-07T10:32:42.137Z,7.49
2023-03-07T10:35:55.658Z,7.49
2023-03-07T10:39:07.922Z,7.48
2023-03-07T10:42:16.783Z,7.46
2023-03-07T10:45:23.622Z,7.48
2023-03-07T10:48:31.461Z,7.52
2023-03-07T10:51:51.708Z,7.57
2023-03-07T10:55:18.164Z,7.63
2023-03-07T10:58:26.993Z,7.67
2023-03-07T11:01:33.947Z,7.67
2023-03-07T11:04:48.727Z,7.66
2023-03-07T11:07:55.159Z,7.64
2023-03-07T11:11:00.034Z,7.62
2023-03-07T11:14:14.766Z,7.61
2023-03-07T11:17:24.331Z,7.57
2023-03-07T11:20:48.016Z,7.51
2023-03-07T11:24:02.105Z,7.45
2023-03-07T11:27:21.333Z,7.41
2023-03-07T11:30:34.744Z,7.37
2023-03-07T11:34:00.010Z,7.33
2023-03-07T11:37:31.172Z,7.28
2023-03-07T11:40:44.412Z,7.24
2023-03-07T11:43:59.874Z,7.21
2023-03-07T11:47:39.391Z,7.21
2023-03-07T11:50:50.766Z,7.23
2023-03-07T11:54:12.811Z,7.25
2023-03-07T11:57:27.775Z,7.25
2023-03-07T12:00:39.020Z,7.24
2023-03-07T12:04:12.046Z,7.26
2023-03-07T12:07:42.904Z,7.27
2023-03-07T12:11:00.386Z,7.28
2023-03-07T12:14:18.624Z,7.29
2023-03-07T12:17:37.742Z,7.28
2023-03-07T12:20:55.559Z,7.27
2023-03-07T12:24:04.764Z,7.27
2023-03-07T12:27:19.180Z,7.28
2023-03-07T12:30:36.303Z,7.32
2023-03-07T12:33:53.790Z,7.41
2023-03-07T12:37:04.401Z,7.56
2023-03-07T12:40:21.729Z,7.73
2023-03-07T12:43:35.242Z,7.91
2023-03-07T12:46:48.836Z,8.06
2023-03-07T12:50:01.001Z,8.22
2023-03-07T12:53:12.601Z,8.32
2023-03-07T12:56:23.516Z,8.42
2023-03-07T12:59:30.454Z,8.48
2023-03-07T13:02:41.889Z,8.50
2023-03-07T13:05:49.156Z,8.52
2023-03-07T13:08:59.899Z,8.50
2023-03-07T13:12:31.293Z,8.50
2023-03-07T13:16:06.882Z,8.44
2023-03-07T13:19:52.390Z,8.40
2023-03-07T13:23:01.346Z,8.36
2023-03-07T13:26:13.302Z,8.34
2023-03-07T13:29:39.652Z,8.31
2023-03-07T13:33:03.401Z,8.30
2023-03-07T13:36:38.023Z,8.30
2023-03-07T13:40:06.472Z,8.30
2023-03-07T13:43:56.803Z,8.30
2023-03-07T13:47:05.004Z,8.32
2023-03-07T13:50:40.495Z,8.30
2023-03-07T13:53:50.186Z,8.30
2023-03-07T13:56:56.531Z,8.26
2023-03-07T14:00:04.683Z,8.21
2023-03-07T14:03:29.458Z,8.15
2023-03-07T14:06:39.004Z,8.07
2023-03-07T14:09:48.817Z,8.02
2023-03-07T14:13:21.472Z,7.98
2023-03-07T14:16:49.080Z,7.95
2023-03-07T14:20:09.246Z,7.92
2023-03-07T14:23:30.015Z,7.89
2023-03-07T14:26:39.863Z,7.86
2023-03-07T14:29:54.115Z,7.85
2023-03-07T14:33:00.983Z,7.84
2023-03-07T14:36:20.070Z,7.83
2023-03-07T14:39:29.985Z,7.81
2023-03-07T14:42:44.751Z,7.79
2023-03-07T14:45:59.872Z,7.77
2023-03-07T14:49:18.783Z,7.74
2023-03-07T14:52:31.349Z,7.72
2023-03-07T14:55:42.711Z,7.70
2023-03-07T14:58:53.792Z,7.68
2023-03-07T15:02:00.838Z,7.67
2023-03-07T15:05:15.471Z,7.66
2023-03-07T15:08:24.244Z,7.66
2023-03-07T15:11:36.213Z,7.68
2023-03-07T15:14:48.839Z,7.69
2023-03-07T15:17:57.417Z,7.70
2023-03-07T15:21:05.480Z,7.69
2023-03-07T15:24:22.846Z,7.69
2023-03-07T15:27:31.863Z,7.68
2023-03-07T15:30:39.503Z,7.68
2023-03-07T15:33:45.924Z,7.68
2023-03-07T15:36:50.415Z,7.68
2023-03-07T15:40:01.576Z,7.69
2023-03-07T15:43:25.994Z,7.66
2023-03-07T15:46:34.234Z,7.61
2023-03-07T15:49:46.078Z,7.56
2023-03-07T15:52:56.130Z,7.50
2023-03-07T15:56:05.184Z,7.45
2023-03-07T15:59:29.387Z,7.38
2023-03-07T16:02:45.434Z,7.31
2023-03-07T16:05:50.375Z,7.21
2023-03-07T16:08:56.676Z,7.12
2023-03-07T16:12:01.414Z,7.03
2023-03-07T16:15:14.688Z,6.94
2023-03-07T16:18:29.165Z,6.83
2023-03-07T16:21:35.349Z,6.74
2023-03-07T16:24:41.665Z,6.64
2023-03-07T16:27:48.356Z,6.55
2023-03-07T16:30:54.589Z,6.47
2023-03-07T16:34:01.466Z,6.39
2023-03-07T16:37:08.441Z,6.32
2023-03-07T16:40:17.243Z,6.25
2023-03-07T16:43:34.794Z,6.19
2023-03-07T16:46:43.055Z,6.12
2023-03-07T16:49:53.107Z,6.06
2023-03-07T16:52:59.523Z,5.99
2023-03-07T16:56:04.171Z,5.92
2023-03-07T16:59:14.730Z,5.87
2023-03-07T17:02:22.405Z,5.82
2023-03-07T17:05:30.593Z,5.77
2023-03-07T17:08:36.925Z,5.71
2023-03-07T17:11:42.686Z,5.66
2023-03-07T17:14:49.445Z,5.61
2023-03-07T17:17:56.201Z,5.57
2023-03-07T17:21:02.489Z,5.53
2023-03-07T17:24:09.534Z,5.50
2023-03-07T17:27:15.873Z,5.45
2023-03-07T17:30:22.617Z,5.42
2023-03-07T17:33:28.953Z,5.39
2023-03-07T17:36:33.568Z,5.35
2023-03-07T17:39:40.824Z,5.32
2023-03-07T17:42:49.321Z,5.28
2023-03-07T17:45:55.600Z,5.23
2023-03-07T17:49:01.863Z,5.19
2023-03-07T17:52:09.762Z,5.15
2023-03-07T17:55:18.061Z,5.10
2023-03-07T17:58:24.231Z,5.07
2023-03-07T18:01:31.130Z,5.06
2023-03-07T18:04:37.424Z,5.05
2023-03-07T18:07:43.903Z,5.04
2023-03-07T18:10:50.011Z,5.05
2023-03-07T18:13:56.792Z,5.08
2023-03-07T18:17:03.413Z,5.13
2023-03-07T18:20:13.262Z,5.20
2023-03-07T18:23:19.449Z,5.25
2023-03-07T18:26:26.025Z,5.32
2023-03-07T18:29:33.086Z,5.38
2023-03-07T18:32:39.433Z,5.43
2023-03-07T18:35:44.074Z,5.46
2023-03-07T18:38:50.950Z,5.50
2023-03-07T18:41:57.353Z,5.53
2023-03-07T18:45:02.018Z,5.54
2023-03-07T18:48:08.688Z,5.55
2023-03-07T18:51:17.806Z,5.56
2023-03-07T18:54:24.084Z,5.57
2023-03-07T18:57:30.366Z,5.56
2023-03-07T19:00:35.051Z,5.57
2023-03-07T19:03:41.691Z,5.57
2023-03-07T19:06:48.698Z,5.56
2023-03-07T19:09:55.118Z,5.56
2023-03-07T19:13:01.275Z,5.57
2023-03-07T19:16:10.417Z,5.57
2023-03-07T19:19:16.780Z,5.58
2023-03-07T19:22:26.432Z,5.59
2023-03-07T19:25:35.382Z,5.60
2023-03-07T19:28:42.072Z,5.61
2023-03-07T19:31:48.463Z,5.61
2023-03-07T19:38:23.555Z,5.60
2023-03-07T19:41:31.453Z,5.61
2023-03-07T19:44:37.767Z,5.63
2023-03-07T19:47:42.247Z,5.63
2023-03-07T19:50:48.519Z,5.64
2023-03-07T19:53:57.458Z,5.65
2023-03-07T19:57:04.020Z,5.65
2023-03-07T20:00:13.764Z,5.66
2023-03-07T20:03:21.174Z,5.66
2023-03-07T20:06:29.650Z,5.68
2023-03-07T20:09:35.932Z,5.70
2023-03-07T20:12:42.264Z,5.71
2023-03-07T20:15:51.738Z,5.72
2023-03-07T20:18:59.693Z,5.75
2023-03-07T20:22:06.850Z,5.75
2023-03-07T20:25:14.576Z,5.76
2023-03-07T20:28:20.863Z,5.78
2023-03-07T20:31:28.045Z,5.78
2023-03-07T20:34:35.451Z,5.79
2023-03-07T20:37:41.863Z,5.80
2023-03-07T20:40:46.381Z,5.80
2023-03-07T20:43:53.881Z,5.82
2023-03-07T20:47:00.175Z,5.83
2023-03-07T20:50:07.167Z,5.85
2023-03-07T20:53:13.515Z,5.86
2023-03-07T20:56:18.557Z,5.86
2023-03-07T20:59:24.883Z,5.87
2023-03-07T21:02:29.443Z,5.87
2023-03-07T21:05:35.915Z,5.88
2023-03-07T21:08:42.306Z,5.87
2023-03-07T21:11:47.579Z,5.87
2023-03-07T21:14:53.796Z,5.86
2023-03-07T21:18:00.360Z,5.85
2023-03-07T21:21:08.743Z,5.84
2023-03-07T21:24:15.719Z,5.82
2023-03-07T21:27:22.216Z,5.81
2023-03-07T21:30:28.548Z,5.79
2023-03-07T21:33:33.946Z,5.78
2023-03-07T21:36:41.097Z,5.77
2023-03-07T21:39:47.355Z,5.76
2023-03-07T21:42:53.644Z,5.73
2023-03-07T21:45:58.217Z,5.70
2023-03-07T21:49:04.629Z,5.68
2023-03-07T21:52:09.182Z,5.66
2023-03-07T21:55:16.518Z,5.67
2023-03-07T21:58:23.085Z,5.67
2023-03-07T22:01:30.763Z,5.67
2023-03-07T22:04:37.177Z,5.67
2023-03-07T22:07:43.629Z,5.68
2023-03-07T22:10:56.893Z,5.69
2023-03-07T22:14:03.396Z,5.72
2023-03-07T22:17:10.055Z,5.75
2023-03-07T22:20:16.735Z,5.79
2023-03-07T22:23:23.257Z,5.92
2023-03-07T22:26:30.708Z,6.54
2023-03-07T22:29:37.080Z,7.11
2023-03-07T22:32:41.662Z,7.53
2023-03-07T22:35:55.996Z,7.70
2023-03-07T22:39:02.382Z,7.38
2023-03-07T22:42:09.516Z,7.08
2023-03-07T22:45:17.339Z,6.88
2023-03-07T22:48:23.732Z,6.75
2023-03-07T22:51:28.514Z,6.64
2023-03-07T22:54:39.303Z,6.56
2023-03-07T22:57:45.657Z,6.47
2023-03-07T23:00:50.272Z,6.41
2023-03-07T23:03:57.856Z,6.36
2023-03-07T23:07:04.233Z,6.30
2023-03-07T23:10:09.358Z,6.25
2023-03-07T23:13:17.193Z,6.20
2023-03-07T23:16:25.889Z,6.16
2023-03-07T23:19:32.348Z,6.25
2023-03-07T23:22:40.841Z,6.78
2023-03-07T23:25:47.376Z,7.31
2023-03-07T23:28:53.728Z,7.67
2023-03-07T23:31:58.623Z,7.83
2023-03-07T23:35:05.550Z,7.48
2023-03-07T23:38:14.385Z,7.13
2023-03-07T23:41:21.609Z,6.90
2023-03-07T23:44:28.000Z,6.73
2023-03-07T23:47:32.661Z,6.60
2023-03-07T23:50:39.004Z,6.50
2023-03-07T23:53:44.070Z,6.41
2023-03-07T23:56:50.395Z,6.34
2023-03-07T23:59:55.183Z,6.36
